createdAt,value
2019-05-15T00:00:15.302Z,1.41
2019-05-15T00:05:21.304Z,1.65
2019-05-15T00:10:28.782Z,1.56
2019-05-15T00:15:32.881Z,1.60
2019-05-15T00:20:39.630Z,2.55
2019-05-15T00:25:44.461Z,1.56
2019-05-15T00:30:50.455Z,1.60
2019-05-15T00:35:56.449Z,1.60
2019-05-15T00:41:02.483Z,1.49
2019-05-15T00:46:09.169Z,1.65
2019-05-15T00:51:14.830Z,1.42
2019-05-15T00:56:19.646Z,1.50
2019-05-15T01:01:25.608Z,1.73
2019-05-15T01:06:31.614Z,2.76
2019-05-15T01:11:38.193Z,1.71
2019-05-15T01:16:43.229Z,1.59
2019-05-15T01:21:49.279Z,1.57
2019-05-15T01:26:55.321Z,1.73
2019-05-15T01:32:01.382Z,1.65
2019-05-15T01:37:08.518Z,1.60
2019-05-15T01:42:12.825Z,1.63
2019-05-15T01:47:19.100Z,1.61
2019-05-15T01:52:24.775Z,1.54
2019-05-15T01:57:30.753Z,1.55
2019-05-15T02:02:39.097Z,1.51
2019-05-15T02:07:42.298Z,1.70
2019-05-15T02:12:48.283Z,2.00
2019-05-15T02:17:54.321Z,1.76
2019-05-15T02:23:00.299Z,1.58
2019-05-15T02:28:09.090Z,1.62
2019-05-15T02:33:11.755Z,1.54
2019-05-15T02:38:19.957Z,1.67
2019-05-15T02:43:23.350Z,1.66
2019-05-15T02:48:29.333Z,1.59
2019-05-15T02:53:35.312Z,2.48
2019-05-15T02:58:41.341Z,1.75
2019-05-15T03:03:49.672Z,1.76
2019-05-15T03:08:52.853Z,1.77
2019-05-15T03:13:59.398Z,1.72
2019-05-15T03:19:04.342Z,2.70
2019-05-15T03:24:10.511Z,2.66
2019-05-15T03:29:16.333Z,3.73
2019-05-15T03:34:28.808Z,2.09
2019-05-15T03:39:29.665Z,2.61
2019-05-15T03:44:33.391Z,1.81
2019-05-15T03:49:39.856Z,3.05
2019-05-15T03:54:44.878Z,3.12
2019-05-15T03:59:50.846Z,2.25
2019-05-15T04:05:00.531Z,2.11
2019-05-15T04:10:02.424Z,2.13
2019-05-15T04:15:10.059Z,1.91
2019-05-15T04:20:13.980Z,1.93
2019-05-15T04:25:20.006Z,3.10
2019-05-15T04:30:26.034Z,2.25
2019-05-15T04:35:32.041Z,2.86
2019-05-15T04:40:39.653Z,5.75
2019-05-15T04:45:43.615Z,1.91
2019-05-15T04:50:49.898Z,2.40
2019-05-15T04:55:59.471Z,2.11
2019-05-15T05:01:02.316Z,3.02
2019-05-15T05:06:09.840Z,2.31
2019-05-15T05:11:14.032Z,2.04
2019-05-15T05:16:20.022Z,3.47
2019-05-15T05:21:27.841Z,1.67
2019-05-15T05:26:31.660Z,3.10
2019-05-15T05:31:39.060Z,1.64
2019-05-15T05:36:43.346Z,1.80
2019-05-15T05:41:49.428Z,1.80
2019-05-15T05:46:55.409Z,2.19
2019-05-15T05:52:01.513Z,2.77
2019-05-15T05:57:09.116Z,2.48
2019-05-15T06:02:12.975Z,2.13
2019-05-15T06:07:19.027Z,2.65
2019-05-15T06:12:25.050Z,3.58
2019-05-15T06:17:31.050Z,2.99
2019-05-15T06:22:38.827Z,3.35
2019-05-15T06:27:42.649Z,2.67
2019-05-15T06:33:04.361Z,2.76
2019-05-15T06:37:54.163Z,2.41
2019-05-15T06:43:00.172Z,2.03
2019-05-15T06:48:09.285Z,2.15
2019-05-15T06:53:11.649Z,2.66
2019-05-15T06:58:19.000Z,1.89
2019-05-15T07:03:25.740Z,2.35
2019-05-15T07:08:28.928Z,1.51
2019-05-15T07:13:34.823Z,1.21
2019-05-15T07:18:40.839Z,0.78
2019-05-15T07:23:49.369Z,1.21
2019-05-15T07:28:52.509Z,0.94
2019-05-15T07:33:59.769Z,0.90
2019-05-15T07:39:04.138Z,1.54
2019-05-15T07:44:10.227Z,1.00
2019-05-15T07:49:18.185Z,0.78
2019-05-15T07:54:21.792Z,0.77
2019-05-15T07:59:28.051Z,0.58
2019-05-15T08:04:33.869Z,0.69
2019-05-15T08:09:40.020Z,0.81
2019-05-15T08:14:48.296Z,0.87
2019-05-15T08:19:51.669Z,0.85
2019-05-15T08:24:59.107Z,0.79
2019-05-15T08:30:03.508Z,0.71
2019-05-15T08:35:09.494Z,0.65
2019-05-15T08:40:17.737Z,0.90
2019-05-15T08:45:21.042Z,0.61
2019-05-15T08:50:28.732Z,0.76
2019-05-15T08:55:32.630Z,0.65
2019-05-15T09:00:40.136Z,0.82
2019-05-15T09:05:44.233Z,0.70
2019-05-15T09:10:50.617Z,0.76
2019-05-15T09:15:58.711Z,0.56
2019-05-15T09:21:02.044Z,0.87
2019-05-15T09:26:09.169Z,0.84
2019-05-15T09:31:13.582Z,0.96
2019-05-15T09:36:20.338Z,0.88
2019-05-15T09:41:25.149Z,0.76
2019-05-15T09:46:31.124Z,0.93
2019-05-15T09:51:38.540Z,0.76
2019-05-15T09:56:43.570Z,0.72
2019-05-15T10:01:49.582Z,0.77
2019-05-15T10:06:55.568Z,0.66
2019-05-15T10:12:01.797Z,0.71
2019-05-15T10:17:09.165Z,0.82
2019-05-15T10:22:13.536Z,0.94
2019-05-15T10:27:19.541Z,1.05
2019-05-15T10:32:25.552Z,0.58
2019-05-15T10:37:31.556Z,1.02
2019-05-15T10:42:39.793Z,0.73
2019-05-15T10:47:43.181Z,0.84
2019-05-15T10:52:49.226Z,0.68
2019-05-15T10:57:55.204Z,0.63
2019-05-15T11:03:01.259Z,0.69
2019-05-15T11:08:08.310Z,0.65
2019-05-15T11:13:12.867Z,0.81
2019-05-15T11:18:18.866Z,0.73
2019-05-15T11:23:24.890Z,0.58
2019-05-15T11:28:32.230Z,0.62
2019-05-15T11:33:38.453Z,2.05
2019-05-15T11:38:41.982Z,0.57
2019-05-15T11:43:49.548Z,1.08
2019-05-15T11:48:53.570Z,0.68
2019-05-15T11:53:59.594Z,0.76
2019-05-15T11:59:05.659Z,0.84
2019-05-15T12:04:26.428Z,1.38
2019-05-15T12:09:18.740Z,0.70
2019-05-15T12:14:22.746Z,0.68
2019-05-15T12:19:29.279Z,0.57
2019-05-15T12:24:36.791Z,0.79
2019-05-15T12:29:40.078Z,0.59
2019-05-15T12:34:45.862Z,0.63
2019-05-15T13:00:14.320Z,0.80
2019-05-15T13:05:20.368Z,0.65
2019-05-15T13:10:28.614Z,0.72
2019-05-15T13:15:31.952Z,0.90
2019-05-15T13:20:38.478Z,0.93
2019-05-15T13:25:43.780Z,0.87
2019-05-15T13:30:49.818Z,0.51
2019-05-15T13:35:58.207Z,0.77
2019-05-15T13:41:01.440Z,0.66
2019-05-15T13:46:08.779Z,0.72
2019-05-15T13:51:13.070Z,0.76
2019-05-15T13:56:19.058Z,0.75
2019-05-15T14:01:25.150Z,0.49
2019-05-15T14:06:31.137Z,0.81
2019-05-15T14:11:39.050Z,0.72
2019-05-15T14:16:42.727Z,0.63
2019-05-15T14:21:49.125Z,0.63
2019-05-15T14:26:54.380Z,0.75
2019-05-15T14:32:00.399Z,0.63
2019-05-15T14:37:08.745Z,0.70
2019-05-15T14:42:11.977Z,0.70
2019-05-15T14:47:19.194Z,0.49
2019-05-15T14:52:23.552Z,0.68
2019-05-15T14:57:29.629Z,0.81
2019-05-15T15:02:38.318Z,0.71
2019-05-15T15:07:41.295Z,0.56
2019-05-15T15:12:49.906Z,0.63
2019-05-15T15:17:52.893Z,0.69
2019-05-15T15:22:59.074Z,0.91
2019-05-15T15:28:05.101Z,0.80
2019-05-15T15:33:11.292Z,0.59
2019-05-15T15:38:27.068Z,0.65
2019-05-15T15:43:23.091Z,0.70
2019-05-15T15:48:29.222Z,0.75
2019-05-15T15:53:35.208Z,0.74
2019-05-15T15:58:41.297Z,0.74
2019-05-15T16:03:48.394Z,0.87
2019-05-15T16:08:55.777Z,0.74
2019-05-15T16:13:58.682Z,0.81
2019-05-15T16:19:04.455Z,0.57
2019-05-15T16:24:17.304Z,0.58
2019-05-15T16:29:17.858Z,0.78
2019-05-15T16:34:21.607Z,0.63
2019-05-15T16:39:28.756Z,0.84
2019-05-15T16:44:33.253Z,0.60
2019-05-15T16:49:39.389Z,0.63
2019-05-15T16:54:45.403Z,0.67
2019-05-15T16:59:51.483Z,0.66
2019-05-15T17:04:57.584Z,0.97
2019-05-15T17:10:03.590Z,0.76
2019-05-15T17:15:09.657Z,0.76
2019-05-15T17:20:17.931Z,0.61
2019-05-15T17:25:21.272Z,0.90
2019-05-15T17:30:28.781Z,0.52
2019-05-15T17:35:32.960Z,0.53
2019-05-15T17:40:39.008Z,0.73
2019-05-15T17:45:45.164Z,0.82
2019-05-15T17:50:52.694Z,0.75
2019-05-15T17:55:58.572Z,0.73
2019-05-15T18:01:02.605Z,0.69
2019-05-15T18:06:08.754Z,0.76
2019-05-15T18:11:14.762Z,0.75
2019-05-15T18:16:20.862Z,0.55
2019-05-15T18:21:28.914Z,0.78
2019-05-15T18:26:32.440Z,0.72
2019-05-15T18:31:38.464Z,1.03
2019-05-15T18:36:44.451Z,0.78
2019-05-15T18:41:50.463Z,1.08
2019-05-15T18:46:58.176Z,0.71
2019-05-15T18:52:02.267Z,0.83
2019-05-15T18:57:08.561Z,0.74
2019-05-15T19:02:14.374Z,2.49
2019-05-15T19:07:20.451Z,0.69
2019-05-15T19:12:28.279Z,0.83
2019-05-15T19:17:32.075Z,1.08
2019-05-15T19:22:40.679Z,0.94
2019-05-15T19:27:43.789Z,1.00
2019-05-15T19:32:49.876Z,0.96
2019-05-15T19:37:58.251Z,0.98
2019-05-15T19:43:04.024Z,0.93
2019-05-15T19:48:08.934Z,1.06
2019-05-15T19:53:12.739Z,1.07
2019-05-15T19:58:18.813Z,1.35
2019-05-15T20:03:24.876Z,1.01
2019-05-15T20:08:30.945Z,0.93
2019-05-15T20:13:38.370Z,1.13
2019-05-15T20:18:42.693Z,1.12
2019-05-15T20:23:48.949Z,1.10
2019-05-15T20:28:54.936Z,1.03
2019-05-15T20:34:05.194Z,1.34
2019-05-15T20:39:08.259Z,1.06
2019-05-15T20:44:12.121Z,1.27
2019-05-15T20:49:18.123Z,1.23
2019-05-15T20:54:24.218Z,1.09
2019-05-15T20:59:30.366Z,1.19
2019-05-15T21:04:38.401Z,1.19
2019-05-15T21:09:42.029Z,1.11
2019-05-15T21:14:48.396Z,1.17
2019-05-15T21:19:53.814Z,1.16
2019-05-15T21:24:59.795Z,1.41
2019-05-15T21:30:08.777Z,2.13
2019-05-15T21:35:11.452Z,1.19
2019-05-15T21:40:17.493Z,1.69
2019-05-15T21:45:23.496Z,0.99
2019-05-15T21:50:29.526Z,1.52
2019-05-15T21:55:35.589Z,1.16
2019-05-15T22:00:41.592Z,1.49
2019-05-15T22:05:48.757Z,1.38
2019-05-15T22:10:53.062Z,1.63
2019-05-15T22:15:59.418Z,1.52
2019-05-15T22:21:05.142Z,1.42
2019-05-15T22:26:11.144Z,0.83
2019-05-15T22:31:17.176Z,0.77
2019-05-15T22:36:23.172Z,0.81
2019-05-15T22:41:29.297Z,0.90
2019-05-15T22:46:35.284Z,2.30
2019-05-15T22:51:41.295Z,1.51
2019-05-15T22:56:48.271Z,0.92
2019-05-15T23:01:52.791Z,1.42
2019-05-15T23:06:59.013Z,1.54
2019-05-15T23:12:05.085Z,1.12
2019-05-15T23:17:11.049Z,1.12
2019-05-15T23:22:18.630Z,1.16
2019-05-15T23:27:22.558Z,1.76
2019-05-15T23:32:28.979Z,1.68
2019-05-15T23:37:34.064Z,1.22
2019-05-15T23:42:40.316Z,1.12
2019-05-15T23:47:48.471Z,1.09
2019-05-15T23:52:51.803Z,2.03
2019-05-15T23:57:58.480Z,1.90
